<?xml version="1.0" encoding="UTF-8" standalone="no" ?>
<gpx xmlns="http://www.topografix.com/GPX/1/1" xmlns:xsi="http://www.w3.org/2001/XMLSchema-instance" xsi:schemaLocation="http://www.topografix.com/GPX/1/1 http://www.topografix.com/GPX/1/1/gpx.xsd" version="1.1" creator="VisuGPX - https://www.visugpx.com">
  <metadata>
    <name>2018-03-26-Bec Charvet-Pravouta-Pré qui tue</name>
    <desc><![CDATA[Avec Rémi et Yannick.
Encore une bonne sortie.]]></desc>
  </metadata>
  <trk>
    <name><![CDATA[2018-03-26 - Bec Charvet-Pravouta-Pré qui tue]]></name>
    <trkseg>
      <trkpt lat="45.2967" lon="5.84416">
        <ele>1223.42</ele>
        <time>2018-03-26T07:39:06Z</time>
      </trkpt>
      <trkpt lat="45.29685" lon="5.84452">
        <ele>1223.42</ele>
        <time>2018-03-26T07:39:50Z</time>
      </trkpt>
      <trkpt lat="45.29691" lon="5.84443">
        <ele>1236.39</ele>
        <time>2018-03-26T07:40:27Z</time>
      </trkpt>
      <trkpt lat="45.29714" lon="5.8445">
        <ele>1236.39</ele>
        <time>2018-03-26T07:40:47Z</time>
      </trkpt>
      <trkpt lat="45.29781" lon="5.84397">
        <ele>1244.08</ele>
        <time>2018-03-26T07:42:41Z</time>
      </trkpt>
      <trkpt lat="45.29985" lon="5.842">
        <ele>1270.04</ele>
        <time>2018-03-26T07:48:17Z</time>
      </trkpt>
      <trkpt lat="45.30004" lon="5.84195">
        <ele>1271.96</ele>
        <time>2018-03-26T07:48:37Z</time>
      </trkpt>
      <trkpt lat="45.30021" lon="5.84141">
        <ele>1278.21</ele>
        <time>2018-03-26T07:49:19Z</time>
      </trkpt>
      <trkpt lat="45.30007" lon="5.84115">
        <ele>1281.09</ele>
        <time>2018-03-26T07:49:47Z</time>
      </trkpt>
      <trkpt lat="45.30001" lon="5.84101">
        <ele>1282.06</ele>
        <time>2018-03-26T07:50:02Z</time>
      </trkpt>
      <trkpt lat="45.29989" lon="5.84086">
        <ele>1283.02</ele>
        <time>2018-03-26T07:50:17Z</time>
      </trkpt>
      <trkpt lat="45.29968" lon="5.84057">
        <ele>1288.3</ele>
        <time>2018-03-26T07:50:51Z</time>
      </trkpt>
      <trkpt lat="45.3005" lon="5.84094">
        <ele>1298.88</ele>
        <time>2018-03-26T07:52:59Z</time>
      </trkpt>
      <trkpt lat="45.30171" lon="5.84067">
        <ele>1313.78</ele>
        <time>2018-03-26T07:55:14Z</time>
      </trkpt>
      <trkpt lat="45.30231" lon="5.84103">
        <ele>1323.39</ele>
        <time>2018-03-26T07:56:34Z</time>
      </trkpt>
      <trkpt lat="45.30252" lon="5.84079">
        <ele>1335.89</ele>
        <time>2018-03-26T07:57:53Z</time>
      </trkpt>
      <trkpt lat="45.30249" lon="5.84059">
        <ele>1338.29</ele>
        <time>2018-03-26T07:58:07Z</time>
      </trkpt>
      <trkpt lat="45.30253" lon="5.84058">
        <ele>1341.18</ele>
        <time>2018-03-26T07:58:19Z</time>
      </trkpt>
      <trkpt lat="45.30261" lon="5.84056">
        <ele>1343.1</ele>
        <time>2018-03-26T07:58:32Z</time>
      </trkpt>
      <trkpt lat="45.30278" lon="5.84072">
        <ele>1349.35</ele>
        <time>2018-03-26T07:59:10Z</time>
      </trkpt>
      <trkpt lat="45.30337" lon="5.84053">
        <ele>1364.25</ele>
        <time>2018-03-26T08:00:26Z</time>
      </trkpt>
      <trkpt lat="45.30358" lon="5.84037">
        <ele>1366.17</ele>
        <time>2018-03-26T08:00:51Z</time>
      </trkpt>
      <trkpt lat="45.30394" lon="5.84064">
        <ele>1377.71</ele>
        <time>2018-03-26T08:01:56Z</time>
      </trkpt>
      <trkpt lat="45.30433" lon="5.84048">
        <ele>1390.68</ele>
        <time>2018-03-26T08:02:54Z</time>
      </trkpt>
      <trkpt lat="45.30481" lon="5.84026">
        <ele>1400.3</ele>
        <time>2018-03-26T08:03:57Z</time>
      </trkpt>
      <trkpt lat="45.30497" lon="5.8402">
        <ele>1403.18</ele>
        <time>2018-03-26T08:04:14Z</time>
      </trkpt>
      <trkpt lat="45.3052" lon="5.83997">
        <ele>1409.43</ele>
        <time>2018-03-26T08:04:45Z</time>
      </trkpt>
      <trkpt lat="45.30501" lon="5.8394">
        <ele>1413.28</ele>
        <time>2018-03-26T08:05:29Z</time>
      </trkpt>
      <trkpt lat="45.30483" lon="5.83915">
        <ele>1415.68</ele>
        <time>2018-03-26T08:05:55Z</time>
      </trkpt>
      <trkpt lat="45.30428" lon="5.83872">
        <ele>1420</ele>
        <time>2018-03-26T08:06:43Z</time>
      </trkpt>
      <trkpt lat="45.30308" lon="5.83727">
        <ele>1435.39</ele>
        <time>2018-03-26T08:09:26Z</time>
      </trkpt>
      <trkpt lat="45.30243" lon="5.83676">
        <ele>1440.67</ele>
        <time>2018-03-26T08:10:46Z</time>
      </trkpt>
      <trkpt lat="45.30267" lon="5.83632">
        <ele>1440.67</ele>
        <time>2018-03-26T08:11:24Z</time>
      </trkpt>
      <trkpt lat="45.30263" lon="5.83617">
        <ele>1435.87</ele>
        <time>2018-03-26T08:11:28Z</time>
      </trkpt>
      <trkpt lat="45.30191" lon="5.83541">
        <ele>1420.97</ele>
        <time>2018-03-26T08:12:10Z</time>
      </trkpt>
      <trkpt lat="45.30175" lon="5.83495">
        <ele>1416.64</ele>
        <time>2018-03-26T08:12:35Z</time>
      </trkpt>
      <trkpt lat="45.30154" lon="5.83475">
        <ele>1419.52</ele>
        <time>2018-03-26T08:12:59Z</time>
      </trkpt>
      <trkpt lat="45.30156" lon="5.83474">
        <ele>1419.52</ele>
        <time>2018-03-26T08:13:00Z</time>
      </trkpt>
      <trkpt lat="45.30081" lon="5.83442">
        <ele>1433.94</ele>
        <time>2018-03-26T08:14:46Z</time>
      </trkpt>
      <trkpt lat="45.30081" lon="5.83388">
        <ele>1441.63</ele>
        <time>2018-03-26T08:15:38Z</time>
      </trkpt>
      <trkpt lat="45.30034" lon="5.83373">
        <ele>1453.65</ele>
        <time>2018-03-26T08:16:50Z</time>
      </trkpt>
      <trkpt lat="45.3003" lon="5.83356">
        <ele>1457.02</ele>
        <time>2018-03-26T08:17:07Z</time>
      </trkpt>
      <trkpt lat="45.30025" lon="5.83313">
        <ele>1463.26</ele>
        <time>2018-03-26T08:17:55Z</time>
      </trkpt>
      <trkpt lat="45.29865" lon="5.83314">
        <ele>1498.83</ele>
        <time>2018-03-26T08:21:39Z</time>
      </trkpt>
      <trkpt lat="45.29844" lon="5.83227">
        <ele>1510.85</ele>
        <time>2018-03-26T08:23:29Z</time>
      </trkpt>
      <trkpt lat="45.29888" lon="5.83083">
        <ele>1538.73</ele>
        <time>2018-03-26T08:26:23Z</time>
      </trkpt>
      <trkpt lat="45.29873" lon="5.83055">
        <ele>1551.22</ele>
        <time>2018-03-26T08:27:26Z</time>
      </trkpt>
      <trkpt lat="45.29874" lon="5.83051">
        <ele>1555.07</ele>
        <time>2018-03-26T08:27:46Z</time>
      </trkpt>
      <trkpt lat="45.29853" lon="5.83021">
        <ele>1563.72</ele>
        <time>2018-03-26T08:28:40Z</time>
      </trkpt>
      <trkpt lat="45.29825" lon="5.83001">
        <ele>1573.82</ele>
        <time>2018-03-26T08:30:01Z</time>
      </trkpt>
      <trkpt lat="45.29845" lon="5.82994">
        <ele>1576.22</ele>
        <time>2018-03-26T08:30:27Z</time>
      </trkpt>
      <trkpt lat="45.29834" lon="5.82976">
        <ele>1585.35</ele>
        <time>2018-03-26T08:31:10Z</time>
      </trkpt>
      <trkpt lat="45.29821" lon="5.82968">
        <ele>1590.16</ele>
        <time>2018-03-26T08:31:40Z</time>
      </trkpt>
      <trkpt lat="45.29852" lon="5.82955">
        <ele>1596.89</ele>
        <time>2018-03-26T08:32:34Z</time>
      </trkpt>
      <trkpt lat="45.29883" lon="5.82969">
        <ele>1602.66</ele>
        <time>2018-03-26T08:33:49Z</time>
      </trkpt>
      <trkpt lat="45.29884" lon="5.82962">
        <ele>1606.02</ele>
        <time>2018-03-26T08:34:20Z</time>
      </trkpt>
      <trkpt lat="45.29907" lon="5.82941">
        <ele>1610.83</ele>
        <time>2018-03-26T08:35:18Z</time>
      </trkpt>
      <trkpt lat="45.29904" lon="5.82943">
        <ele>1615.15</ele>
        <time>2018-03-26T08:35:41Z</time>
      </trkpt>
      <trkpt lat="45.29898" lon="5.82947">
        <ele>1615.15</ele>
        <time>2018-03-26T08:35:54Z</time>
      </trkpt>
      <trkpt lat="45.29891" lon="5.82947">
        <ele>1617.07</ele>
        <time>2018-03-26T08:36:11Z</time>
      </trkpt>
      <trkpt lat="45.29881" lon="5.8294">
        <ele>1624.77</ele>
        <time>2018-03-26T08:36:48Z</time>
      </trkpt>
      <trkpt lat="45.29864" lon="5.82901">
        <ele>1641.11</ele>
        <time>2018-03-26T08:38:53Z</time>
      </trkpt>
      <trkpt lat="45.29835" lon="5.82847">
        <ele>1655.05</ele>
        <time>2018-03-26T08:41:00Z</time>
      </trkpt>
      <trkpt lat="45.29817" lon="5.82852">
        <ele>1668.99</ele>
        <time>2018-03-26T08:42:29Z</time>
      </trkpt>
      <trkpt lat="45.29803" lon="5.8283">
        <ele>1674.75</ele>
        <time>2018-03-26T08:43:26Z</time>
      </trkpt>
      <trkpt lat="45.29795" lon="5.82826">
        <ele>1680.52</ele>
        <time>2018-03-26T08:44:20Z</time>
      </trkpt>
      <trkpt lat="45.29786" lon="5.82806">
        <ele>1686.77</ele>
        <time>2018-03-26T08:45:06Z</time>
      </trkpt>
      <trkpt lat="45.29784" lon="5.82822">
        <ele>1691.58</ele>
        <time>2018-03-26T08:45:42Z</time>
      </trkpt>
      <trkpt lat="45.29762" lon="5.82815">
        <ele>1702.63</ele>
        <time>2018-03-26T08:46:42Z</time>
      </trkpt>
      <trkpt lat="45.29735" lon="5.82807">
        <ele>1719.94</ele>
        <time>2018-03-26T08:48:53Z</time>
      </trkpt>
      <trkpt lat="45.29701" lon="5.82798">
        <ele>1732.43</ele>
        <time>2018-03-26T08:49:58Z</time>
      </trkpt>
      <trkpt lat="45.29664" lon="5.82837">
        <ele>1740.6</ele>
        <time>2018-03-26T08:51:11Z</time>
      </trkpt>
      <trkpt lat="45.29664" lon="5.82836">
        <ele>1738.2</ele>
        <time>2018-03-26T08:51:22Z</time>
      </trkpt>
      <trkpt lat="45.29663" lon="5.82835">
        <ele>1742.05</ele>
        <time>2018-03-26T08:51:50Z</time>
      </trkpt>
      <trkpt lat="45.29683" lon="5.82807">
        <ele>1733.39</ele>
        <time>2018-03-26T09:04:52Z</time>
      </trkpt>
      <trkpt lat="45.29691" lon="5.82787">
        <ele>1731.47</ele>
        <time>2018-03-26T09:04:54Z</time>
      </trkpt>
      <trkpt lat="45.29713" lon="5.82756">
        <ele>1721.38</ele>
        <time>2018-03-26T09:04:59Z</time>
      </trkpt>
      <trkpt lat="45.29721" lon="5.82748">
        <ele>1716.09</ele>
        <time>2018-03-26T09:05:01Z</time>
      </trkpt>
      <trkpt lat="45.29728" lon="5.82713">
        <ele>1701.67</ele>
        <time>2018-03-26T09:05:12Z</time>
      </trkpt>
      <trkpt lat="45.29734" lon="5.82715">
        <ele>1701.67</ele>
        <time>2018-03-26T09:05:33Z</time>
      </trkpt>
      <trkpt lat="45.29744" lon="5.82708">
        <ele>1694.94</ele>
        <time>2018-03-26T09:05:36Z</time>
      </trkpt>
      <trkpt lat="45.29759" lon="5.82707">
        <ele>1682.93</ele>
        <time>2018-03-26T09:05:40Z</time>
      </trkpt>
      <trkpt lat="45.29776" lon="5.82694">
        <ele>1666.58</ele>
        <time>2018-03-26T09:05:47Z</time>
      </trkpt>
      <trkpt lat="45.29779" lon="5.82699">
        <ele>1662.74</ele>
        <time>2018-03-26T09:05:48Z</time>
      </trkpt>
      <trkpt lat="45.29798" lon="5.82709">
        <ele>1648.32</ele>
        <time>2018-03-26T09:05:54Z</time>
      </trkpt>
      <trkpt lat="45.29834" lon="5.82699">
        <ele>1628.13</ele>
        <time>2018-03-26T09:07:20Z</time>
      </trkpt>
      <trkpt lat="45.29843" lon="5.82702">
        <ele>1619.48</ele>
        <time>2018-03-26T09:07:33Z</time>
      </trkpt>
      <trkpt lat="45.2985" lon="5.82682">
        <ele>1602.66</ele>
        <time>2018-03-26T09:07:53Z</time>
      </trkpt>
      <trkpt lat="45.29861" lon="5.82679">
        <ele>1594.96</ele>
        <time>2018-03-26T09:07:56Z</time>
      </trkpt>
      <trkpt lat="45.29917" lon="5.82679">
        <ele>1549.3</ele>
        <time>2018-03-26T09:08:14Z</time>
      </trkpt>
      <trkpt lat="45.29937" lon="5.82634">
        <ele>1530.56</ele>
        <time>2018-03-26T09:09:59Z</time>
      </trkpt>
      <trkpt lat="45.30015" lon="5.8265">
        <ele>1475.28</ele>
        <time>2018-03-26T09:10:20Z</time>
      </trkpt>
      <trkpt lat="45.30035" lon="5.82656">
        <ele>1464.71</ele>
        <time>2018-03-26T09:10:24Z</time>
      </trkpt>
      <trkpt lat="45.30062" lon="5.82652">
        <ele>1453.17</ele>
        <time>2018-03-26T09:11:47Z</time>
      </trkpt>
      <trkpt lat="45.30084" lon="5.82643">
        <ele>1443.08</ele>
        <time>2018-03-26T09:11:53Z</time>
      </trkpt>
      <trkpt lat="45.30099" lon="5.8264">
        <ele>1434.42</ele>
        <time>2018-03-26T09:11:57Z</time>
      </trkpt>
      <trkpt lat="45.30119" lon="5.82613">
        <ele>1422.41</ele>
        <time>2018-03-26T09:12:05Z</time>
      </trkpt>
      <trkpt lat="45.30133" lon="5.82595">
        <ele>1415.2</ele>
        <time>2018-03-26T09:12:09Z</time>
      </trkpt>
      <trkpt lat="45.3022" lon="5.82585">
        <ele>1375.78</ele>
        <time>2018-03-26T09:13:58Z</time>
      </trkpt>
      <trkpt lat="45.30246" lon="5.82599">
        <ele>1363.77</ele>
        <time>2018-03-26T09:14:05Z</time>
      </trkpt>
      <trkpt lat="45.30288" lon="5.82614">
        <ele>1346.94</ele>
        <time>2018-03-26T09:14:15Z</time>
      </trkpt>
      <trkpt lat="45.30335" lon="5.8262">
        <ele>1332.04</ele>
        <time>2018-03-26T09:14:25Z</time>
      </trkpt>
      <trkpt lat="45.30376" lon="5.82598">
        <ele>1316.66</ele>
        <time>2018-03-26T09:14:43Z</time>
      </trkpt>
      <trkpt lat="45.30406" lon="5.82587">
        <ele>1301.76</ele>
        <time>2018-03-26T09:14:53Z</time>
      </trkpt>
      <trkpt lat="45.30436" lon="5.82697">
        <ele>1295.51</ele>
        <time>2018-03-26T09:17:22Z</time>
      </trkpt>
      <trkpt lat="45.30445" lon="5.82701">
        <ele>1294.07</ele>
        <time>2018-03-26T09:19:08Z</time>
      </trkpt>
      <trkpt lat="45.30435" lon="5.82696">
        <ele>1299.84</ele>
        <time>2018-03-26T09:23:03Z</time>
      </trkpt>
      <trkpt lat="45.30435" lon="5.82696">
        <ele>1295.03</ele>
        <time>2018-03-26T09:23:04Z</time>
      </trkpt>
      <trkpt lat="45.3044" lon="5.82693">
        <ele>1298.4</ele>
        <time>2018-03-26T09:24:10Z</time>
      </trkpt>
      <trkpt lat="45.30442" lon="5.82697">
        <ele>1298.4</ele>
        <time>2018-03-26T09:24:29Z</time>
      </trkpt>
      <trkpt lat="45.30429" lon="5.8273">
        <ele>1301.76</ele>
        <time>2018-03-26T09:25:03Z</time>
      </trkpt>
      <trkpt lat="45.30398" lon="5.82776">
        <ele>1308.01</ele>
        <time>2018-03-26T09:25:51Z</time>
      </trkpt>
      <trkpt lat="45.3036" lon="5.82834">
        <ele>1315.22</ele>
        <time>2018-03-26T09:26:54Z</time>
      </trkpt>
      <trkpt lat="45.30358" lon="5.82896">
        <ele>1322.43</ele>
        <time>2018-03-26T09:27:45Z</time>
      </trkpt>
      <trkpt lat="45.30384" lon="5.82935">
        <ele>1329.16</ele>
        <time>2018-03-26T09:28:35Z</time>
      </trkpt>
      <trkpt lat="45.3043" lon="5.82914">
        <ele>1333.97</ele>
        <time>2018-03-26T09:29:22Z</time>
      </trkpt>
      <trkpt lat="45.30453" lon="5.82916">
        <ele>1335.89</ele>
        <time>2018-03-26T09:29:45Z</time>
      </trkpt>
      <trkpt lat="45.30456" lon="5.82996">
        <ele>1345.02</ele>
        <time>2018-03-26T09:30:56Z</time>
      </trkpt>
      <trkpt lat="45.30504" lon="5.83086">
        <ele>1364.25</ele>
        <time>2018-03-26T09:32:53Z</time>
      </trkpt>
      <trkpt lat="45.30514" lon="5.83151">
        <ele>1378.19</ele>
        <time>2018-03-26T09:34:04Z</time>
      </trkpt>
      <trkpt lat="45.30535" lon="5.83172">
        <ele>1388.28</ele>
        <time>2018-03-26T09:34:53Z</time>
      </trkpt>
      <trkpt lat="45.30564" lon="5.83144">
        <ele>1393.09</ele>
        <time>2018-03-26T09:35:46Z</time>
      </trkpt>
      <trkpt lat="45.30599" lon="5.83085">
        <ele>1397.89</ele>
        <time>2018-03-26T09:36:35Z</time>
      </trkpt>
      <trkpt lat="45.30639" lon="5.82977">
        <ele>1407.03</ele>
        <time>2018-03-26T09:37:59Z</time>
      </trkpt>
      <trkpt lat="45.30698" lon="5.82868">
        <ele>1420.97</ele>
        <time>2018-03-26T09:39:46Z</time>
      </trkpt>
      <trkpt lat="45.30769" lon="5.82725">
        <ele>1438.27</ele>
        <time>2018-03-26T09:41:48Z</time>
      </trkpt>
      <trkpt lat="45.3084" lon="5.82621">
        <ele>1452.69</ele>
        <time>2018-03-26T09:43:40Z</time>
      </trkpt>
      <trkpt lat="45.30886" lon="5.82595">
        <ele>1460.38</ele>
        <time>2018-03-26T09:44:29Z</time>
      </trkpt>
      <trkpt lat="45.3089" lon="5.82659">
        <ele>1475.76</ele>
        <time>2018-03-26T09:45:40Z</time>
      </trkpt>
      <trkpt lat="45.30909" lon="5.82671">
        <ele>1484.89</ele>
        <time>2018-03-26T09:46:20Z</time>
      </trkpt>
      <trkpt lat="45.30916" lon="5.82671">
        <ele>1486.34</ele>
        <time>2018-03-26T09:46:32Z</time>
      </trkpt>
      <trkpt lat="45.30965" lon="5.82693">
        <ele>1499.79</ele>
        <time>2018-03-26T09:47:41Z</time>
      </trkpt>
      <trkpt lat="45.3102" lon="5.82782">
        <ele>1521.9</ele>
        <time>2018-03-26T09:49:39Z</time>
      </trkpt>
      <trkpt lat="45.311" lon="5.82834">
        <ele>1544.01</ele>
        <time>2018-03-26T09:51:35Z</time>
      </trkpt>
      <trkpt lat="45.31099" lon="5.82846">
        <ele>1546.42</ele>
        <time>2018-03-26T09:51:50Z</time>
      </trkpt>
      <trkpt lat="45.31127" lon="5.82864">
        <ele>1555.07</ele>
        <time>2018-03-26T09:52:29Z</time>
      </trkpt>
      <trkpt lat="45.31141" lon="5.82889">
        <ele>1560.84</ele>
        <time>2018-03-26T09:53:02Z</time>
      </trkpt>
      <trkpt lat="45.31181" lon="5.82935">
        <ele>1576.22</ele>
        <time>2018-03-26T09:54:14Z</time>
      </trkpt>
      <trkpt lat="45.31201" lon="5.82965">
        <ele>1582.47</ele>
        <time>2018-03-26T09:54:49Z</time>
      </trkpt>
      <trkpt lat="45.31248" lon="5.83053">
        <ele>1599.77</ele>
        <time>2018-03-26T09:56:33Z</time>
      </trkpt>
      <trkpt lat="45.31239" lon="5.83198">
        <ele>1631.01</ele>
        <time>2018-03-26T09:59:02Z</time>
      </trkpt>
      <trkpt lat="45.31253" lon="5.8338">
        <ele>1652.64</ele>
        <time>2018-03-26T10:01:47Z</time>
      </trkpt>
      <trkpt lat="45.31276" lon="5.83442">
        <ele>1664.66</ele>
        <time>2018-03-26T10:03:00Z</time>
      </trkpt>
      <trkpt lat="45.31375" lon="5.83525">
        <ele>1691.1</ele>
        <time>2018-03-26T10:05:58Z</time>
      </trkpt>
      <trkpt lat="45.31369" lon="5.83608">
        <ele>1707.92</ele>
        <time>2018-03-26T10:07:54Z</time>
      </trkpt>
      <trkpt lat="45.31337" lon="5.83604">
        <ele>1719.46</ele>
        <time>2018-03-26T10:08:49Z</time>
      </trkpt>
      <trkpt lat="45.31328" lon="5.83603">
        <ele>1720.9</ele>
        <time>2018-03-26T10:09:01Z</time>
      </trkpt>
      <trkpt lat="45.31133" lon="5.83549">
        <ele>1757.43</ele>
        <time>2018-03-26T10:26:53Z</time>
      </trkpt>
      <trkpt lat="45.31098" lon="5.83558">
        <ele>1749.26</ele>
        <time>2018-03-26T10:28:12Z</time>
      </trkpt>
      <trkpt lat="45.31051" lon="5.83571">
        <ele>1737.24</ele>
        <time>2018-03-26T10:28:18Z</time>
      </trkpt>
      <trkpt lat="45.31043" lon="5.83569">
        <ele>1734.84</ele>
        <time>2018-03-26T10:28:21Z</time>
      </trkpt>
      <trkpt lat="45.31031" lon="5.83597">
        <ele>1721.86</ele>
        <time>2018-03-26T10:28:31Z</time>
      </trkpt>
      <trkpt lat="45.31026" lon="5.83598">
        <ele>1717.53</ele>
        <time>2018-03-26T10:28:32Z</time>
      </trkpt>
      <trkpt lat="45.30957" lon="5.83584">
        <ele>1698.31</ele>
        <time>2018-03-26T10:28:43Z</time>
      </trkpt>
      <trkpt lat="45.30951" lon="5.83591">
        <ele>1695.9</ele>
        <time>2018-03-26T10:28:45Z</time>
      </trkpt>
      <trkpt lat="45.3094" lon="5.83609">
        <ele>1684.85</ele>
        <time>2018-03-26T10:28:48Z</time>
      </trkpt>
      <trkpt lat="45.30896" lon="5.83605">
        <ele>1671.39</ele>
        <time>2018-03-26T10:28:57Z</time>
      </trkpt>
      <trkpt lat="45.30876" lon="5.83645">
        <ele>1650.72</ele>
        <time>2018-03-26T10:29:03Z</time>
      </trkpt>
      <trkpt lat="45.30868" lon="5.83675">
        <ele>1632.94</ele>
        <time>2018-03-26T10:29:07Z</time>
      </trkpt>
      <trkpt lat="45.30862" lon="5.83694">
        <ele>1623.8</ele>
        <time>2018-03-26T10:29:10Z</time>
      </trkpt>
      <trkpt lat="45.30886" lon="5.83747">
        <ele>1606.98</ele>
        <time>2018-03-26T10:29:20Z</time>
      </trkpt>
      <trkpt lat="45.30891" lon="5.83765">
        <ele>1599.29</ele>
        <time>2018-03-26T10:29:23Z</time>
      </trkpt>
      <trkpt lat="45.3087" lon="5.83839">
        <ele>1567.09</ele>
        <time>2018-03-26T10:29:33Z</time>
      </trkpt>
      <trkpt lat="45.3082" lon="5.83829">
        <ele>1548.34</ele>
        <time>2018-03-26T10:29:43Z</time>
      </trkpt>
      <trkpt lat="45.30806" lon="5.83865">
        <ele>1532.96</ele>
        <time>2018-03-26T10:29:48Z</time>
      </trkpt>
      <trkpt lat="45.30814" lon="5.83912">
        <ele>1520.94</ele>
        <time>2018-03-26T10:29:56Z</time>
      </trkpt>
      <trkpt lat="45.3079" lon="5.83956">
        <ele>1502.68</ele>
        <time>2018-03-26T10:30:00Z</time>
      </trkpt>
      <trkpt lat="45.308" lon="5.84005">
        <ele>1495.95</ele>
        <time>2018-03-26T10:30:05Z</time>
      </trkpt>
      <trkpt lat="45.30765" lon="5.84077">
        <ele>1470.95</ele>
        <time>2018-03-26T10:30:14Z</time>
      </trkpt>
      <trkpt lat="45.30762" lon="5.84092">
        <ele>1470.95</ele>
        <time>2018-03-26T10:30:15Z</time>
      </trkpt>
      <trkpt lat="45.30759" lon="5.84124">
        <ele>1462.3</ele>
        <time>2018-03-26T10:30:17Z</time>
      </trkpt>
      <trkpt lat="45.30719" lon="5.84194">
        <ele>1457.98</ele>
        <time>2018-03-26T10:33:48Z</time>
      </trkpt>
      <trkpt lat="45.30719" lon="5.84193">
        <ele>1455.09</ele>
        <time>2018-03-26T10:34:22Z</time>
      </trkpt>
      <trkpt lat="45.30721" lon="5.84193">
        <ele>1458.46</ele>
        <time>2018-03-26T10:34:51Z</time>
      </trkpt>
      <trkpt lat="45.30721" lon="5.84193">
        <ele>1456.05</ele>
        <time>2018-03-26T10:35:09Z</time>
      </trkpt>
      <trkpt lat="45.3073" lon="5.84237">
        <ele>1468.07</ele>
        <time>2018-03-26T10:37:04Z</time>
      </trkpt>
      <trkpt lat="45.30703" lon="5.8434">
        <ele>1489.7</ele>
        <time>2018-03-26T10:39:04Z</time>
      </trkpt>
      <trkpt lat="45.30588" lon="5.84675">
        <ele>1579.58</ele>
        <time>2018-03-26T10:46:34Z</time>
      </trkpt>
      <trkpt lat="45.30573" lon="5.84712">
        <ele>1587.27</ele>
        <time>2018-03-26T10:47:19Z</time>
      </trkpt>
      <trkpt lat="45.30567" lon="5.84736">
        <ele>1591.12</ele>
        <time>2018-03-26T10:47:49Z</time>
      </trkpt>
      <trkpt lat="45.30885" lon="5.84803">
        <ele>1709.84</ele>
        <time>2018-03-26T10:59:53Z</time>
      </trkpt>
      <trkpt lat="45.30951" lon="5.84801">
        <ele>1734.84</ele>
        <time>2018-03-26T11:02:15Z</time>
      </trkpt>
      <trkpt lat="45.30919" lon="5.8488">
        <ele>1755.02</ele>
        <time>2018-03-26T11:04:14Z</time>
      </trkpt>
      <trkpt lat="45.31011" lon="5.84894">
        <ele>1792.52</ele>
        <time>2018-03-26T11:08:19Z</time>
      </trkpt>
      <trkpt lat="45.31004" lon="5.84914">
        <ele>1801.17</ele>
        <time>2018-03-26T11:09:26Z</time>
      </trkpt>
      <trkpt lat="45.31058" lon="5.84946">
        <ele>1817.99</ele>
        <time>2018-03-26T11:11:26Z</time>
      </trkpt>
      <trkpt lat="45.30984" lon="5.85001">
        <ele>1838.18</ele>
        <time>2018-03-26T11:14:44Z</time>
      </trkpt>
      <trkpt lat="45.30982" lon="5.85003">
        <ele>1840.1</ele>
        <time>2018-03-26T11:16:15Z</time>
      </trkpt>
      <trkpt lat="45.3102" lon="5.85007">
        <ele>1850.19</ele>
        <time>2018-03-26T11:27:16Z</time>
      </trkpt>
      <trkpt lat="45.31025" lon="5.84992">
        <ele>1843.95</ele>
        <time>2018-03-26T11:35:00Z</time>
      </trkpt>
      <trkpt lat="45.31011" lon="5.84973">
        <ele>1830.97</ele>
        <time>2018-03-26T11:35:10Z</time>
      </trkpt>
      <trkpt lat="45.31017" lon="5.84958">
        <ele>1825.68</ele>
        <time>2018-03-26T11:35:21Z</time>
      </trkpt>
      <trkpt lat="45.31039" lon="5.84942">
        <ele>1817.99</ele>
        <time>2018-03-26T11:35:27Z</time>
      </trkpt>
      <trkpt lat="45.31028" lon="5.84877">
        <ele>1787.71</ele>
        <time>2018-03-26T11:35:50Z</time>
      </trkpt>
      <trkpt lat="45.31028" lon="5.84863">
        <ele>1778.1</ele>
        <time>2018-03-26T11:35:54Z</time>
      </trkpt>
      <trkpt lat="45.30957" lon="5.84876">
        <ele>1768.96</ele>
        <time>2018-03-26T11:36:34Z</time>
      </trkpt>
      <trkpt lat="45.30946" lon="5.84858">
        <ele>1759.83</ele>
        <time>2018-03-26T11:36:40Z</time>
      </trkpt>
      <trkpt lat="45.30925" lon="5.84853">
        <ele>1750.7</ele>
        <time>2018-03-26T11:36:44Z</time>
      </trkpt>
      <trkpt lat="45.30879" lon="5.84878">
        <ele>1741.57</ele>
        <time>2018-03-26T11:36:53Z</time>
      </trkpt>
      <trkpt lat="45.30862" lon="5.8487">
        <ele>1733.39</ele>
        <time>2018-03-26T11:36:58Z</time>
      </trkpt>
      <trkpt lat="45.30859" lon="5.84861">
        <ele>1727.63</ele>
        <time>2018-03-26T11:37:00Z</time>
      </trkpt>
      <trkpt lat="45.3084" lon="5.84836">
        <ele>1712.25</ele>
        <time>2018-03-26T11:37:05Z</time>
      </trkpt>
      <trkpt lat="45.30823" lon="5.84833">
        <ele>1705.52</ele>
        <time>2018-03-26T11:37:08Z</time>
      </trkpt>
      <trkpt lat="45.30796" lon="5.84829">
        <ele>1694.94</ele>
        <time>2018-03-26T11:37:12Z</time>
      </trkpt>
      <trkpt lat="45.30764" lon="5.84802">
        <ele>1676.68</ele>
        <time>2018-03-26T11:37:18Z</time>
      </trkpt>
      <trkpt lat="45.3075" lon="5.8478">
        <ele>1666.1</ele>
        <time>2018-03-26T11:37:21Z</time>
      </trkpt>
      <trkpt lat="45.30733" lon="5.84751">
        <ele>1646.88</ele>
        <time>2018-03-26T11:37:26Z</time>
      </trkpt>
      <trkpt lat="45.30717" lon="5.84757">
        <ele>1643.03</ele>
        <time>2018-03-26T11:37:28Z</time>
      </trkpt>
      <trkpt lat="45.30696" lon="5.84737">
        <ele>1632.46</ele>
        <time>2018-03-26T11:37:32Z</time>
      </trkpt>
      <trkpt lat="45.30686" lon="5.84722">
        <ele>1623.8</ele>
        <time>2018-03-26T11:37:34Z</time>
      </trkpt>
      <trkpt lat="45.30663" lon="5.84659">
        <ele>1597.37</ele>
        <time>2018-03-26T11:37:41Z</time>
      </trkpt>
      <trkpt lat="45.30663" lon="5.8465">
        <ele>1592.56</ele>
        <time>2018-03-26T11:37:42Z</time>
      </trkpt>
      <trkpt lat="45.30644" lon="5.84611">
        <ele>1575.26</ele>
        <time>2018-03-26T11:37:48Z</time>
      </trkpt>
      <trkpt lat="45.30613" lon="5.84404">
        <ele>1501.72</ele>
        <time>2018-03-26T11:38:49Z</time>
      </trkpt>
      <trkpt lat="45.3059" lon="5.84302">
        <ele>1468.07</ele>
        <time>2018-03-26T11:38:58Z</time>
      </trkpt>
      <trkpt lat="45.30576" lon="5.8425">
        <ele>1448.36</ele>
        <time>2018-03-26T11:39:02Z</time>
      </trkpt>
      <trkpt lat="45.30572" lon="5.84243">
        <ele>1440.19</ele>
        <time>2018-03-26T11:39:05Z</time>
      </trkpt>
      <trkpt lat="45.30572" lon="5.84244">
        <ele>1444.04</ele>
        <time>2018-03-26T11:39:06Z</time>
      </trkpt>
      <trkpt lat="45.30575" lon="5.8425">
        <ele>1443.56</ele>
        <time>2018-03-26T11:39:22Z</time>
      </trkpt>
      <trkpt lat="45.30574" lon="5.84249">
        <ele>1443.56</ele>
        <time>2018-03-26T11:39:26Z</time>
      </trkpt>
      <trkpt lat="45.3059" lon="5.84224">
        <ele>1441.15</ele>
        <time>2018-03-26T11:39:33Z</time>
      </trkpt>
      <trkpt lat="45.30596" lon="5.842">
        <ele>1434.91</ele>
        <time>2018-03-26T11:39:37Z</time>
      </trkpt>
      <trkpt lat="45.30594" lon="5.84184">
        <ele>1428.66</ele>
        <time>2018-03-26T11:39:39Z</time>
      </trkpt>
      <trkpt lat="45.30605" lon="5.84142">
        <ele>1420.97</ele>
        <time>2018-03-26T11:39:43Z</time>
      </trkpt>
      <trkpt lat="45.30607" lon="5.84137">
        <ele>1419.04</ele>
        <time>2018-03-26T11:39:45Z</time>
      </trkpt>
      <trkpt lat="45.3055" lon="5.84125">
        <ele>1408.95</ele>
        <time>2018-03-26T11:40:09Z</time>
      </trkpt>
      <trkpt lat="45.30534" lon="5.8413">
        <ele>1405.1</ele>
        <time>2018-03-26T11:40:16Z</time>
      </trkpt>
      <trkpt lat="45.30485" lon="5.84037">
        <ele>1383.96</ele>
        <time>2018-03-26T11:40:48Z</time>
      </trkpt>
      <trkpt lat="45.30375" lon="5.83967">
        <ele>1370.5</ele>
        <time>2018-03-26T11:41:17Z</time>
      </trkpt>
      <trkpt lat="45.30366" lon="5.83954">
        <ele>1369.05</ele>
        <time>2018-03-26T11:41:19Z</time>
      </trkpt>
      <trkpt lat="45.30356" lon="5.83941">
        <ele>1367.61</ele>
        <time>2018-03-26T11:41:21Z</time>
      </trkpt>
      <trkpt lat="45.30322" lon="5.83918">
        <ele>1365.21</ele>
        <time>2018-03-26T11:41:27Z</time>
      </trkpt>
      <trkpt lat="45.30337" lon="5.83996">
        <ele>1358.48</ele>
        <time>2018-03-26T11:41:38Z</time>
      </trkpt>
      <trkpt lat="45.30343" lon="5.84017">
        <ele>1356.08</ele>
        <time>2018-03-26T11:41:41Z</time>
      </trkpt>
      <trkpt lat="45.30325" lon="5.8403">
        <ele>1351.75</ele>
        <time>2018-03-26T11:41:45Z</time>
      </trkpt>
      <trkpt lat="45.30216" lon="5.83936">
        <ele>1337.81</ele>
        <time>2018-03-26T11:42:01Z</time>
      </trkpt>
      <trkpt lat="45.30161" lon="5.83946">
        <ele>1331.56</ele>
        <time>2018-03-26T11:42:09Z</time>
      </trkpt>
      <trkpt lat="45.30151" lon="5.83955">
        <ele>1329.64</ele>
        <time>2018-03-26T11:42:11Z</time>
      </trkpt>
      <trkpt lat="45.302" lon="5.83989">
        <ele>1321.47</ele>
        <time>2018-03-26T11:42:19Z</time>
      </trkpt>
      <trkpt lat="45.3022" lon="5.84058">
        <ele>1315.22</ele>
        <time>2018-03-26T11:42:27Z</time>
      </trkpt>
      <trkpt lat="45.30217" lon="5.84064">
        <ele>1312.82</ele>
        <time>2018-03-26T11:42:28Z</time>
      </trkpt>
      <trkpt lat="45.30174" lon="5.84055">
        <ele>1304.17</ele>
        <time>2018-03-26T11:42:34Z</time>
      </trkpt>
      <trkpt lat="45.29995" lon="5.84085">
        <ele>1286.86</ele>
        <time>2018-03-26T11:42:53Z</time>
      </trkpt>
      <trkpt lat="45.29958" lon="5.84084">
        <ele>1280.13</ele>
        <time>2018-03-26T11:42:58Z</time>
      </trkpt>
      <trkpt lat="45.29957" lon="5.84134">
        <ele>1273.88</ele>
        <time>2018-03-26T11:43:03Z</time>
      </trkpt>
      <trkpt lat="45.30012" lon="5.84172">
        <ele>1268.12</ele>
        <time>2018-03-26T11:43:11Z</time>
      </trkpt>
      <trkpt lat="45.30008" lon="5.84186">
        <ele>1266.19</ele>
        <time>2018-03-26T11:43:13Z</time>
      </trkpt>
      <trkpt lat="45.29708" lon="5.84468">
        <ele>1223.9</ele>
        <time>2018-03-26T11:48:56Z</time>
      </trkpt>
      <trkpt lat="45.2971" lon="5.8447">
        <ele>1221.49</ele>
        <time>2018-03-26T11:49:15Z</time>
      </trkpt>
    </trkseg>
  </trk>
</gpx>